sensor_id;sensor_type;location;lat;lon;timestamp;temperature;humidity
53645;DHT22;39547;45.554;12.068;2023-03-01T00:03:37;4.60;69.50
53645;DHT22;39547;45.554;12.068;2023-03-01T00:09:39;4.50;70.20
53645;DHT22;39547;45.554;12.068;2023-03-01T00:15:41;4.40;69.90
53645;DHT22;39547;45.554;12.068;2023-03-01T00:21:43;4.40;69.60
53645;DHT22;39547;45.554;12.068;2023-03-01T00:27:44;4.30;70.30
53645;DHT22;39547;45.554;12.068;2023-03-01T00:33:48;4.30;69.70
53645;DHT22;39547;45.554;12.068;2023-03-01T00:39:49;4.30;70.50
53645;DHT22;39547;45.554;12.068;2023-03-01T00:45:51;4.30;70.50
53645;DHT22;39547;45.554;12.068;2023-03-01T00:51:53;4.30;70.60
53645;DHT22;39547;45.554;12.068;2023-03-01T00:57:54;4.30;70.30
53645;DHT22;39547;45.554;12.068;2023-03-01T01:03:58;4.30;70.30
53645;DHT22;39547;45.554;12.068;2023-03-01T01:10:00;4.20;70.20
53645;DHT22;39547;45.554;12.068;2023-03-01T01:16:01;4.20;70.90
53645;DHT22;39547;45.554;12.068;2023-03-01T01:22:03;4.30;71.20
53645;DHT22;39547;45.554;12.068;2023-03-01T01:28:05;4.40;70.90
53645;DHT22;39547;45.554;12.068;2023-03-01T01:34:08;4.50;70.30
53645;DHT22;39547;45.554;12.068;2023-03-01T01:40:13;4.60;70.10
53645;DHT22;39547;45.554;12.068;2023-03-01T01:46:32;4.70;70.00
53645;DHT22;39547;45.554;12.068;2023-03-01T01:52:35;4.80;70.20
53645;DHT22;39547;45.554;12.068;2023-03-01T01:58:38;4.80;69.70
53645;DHT22;39547;45.554;12.068;2023-03-01T02:04:40;4.90;69.90
53645;DHT22;39547;45.554;12.068;2023-03-01T02:10:42;4.90;69.40
53645;DHT22;39547;45.554;12.068;2023-03-01T02:16:45;4.90;69.60
53645;DHT22;39547;45.554;12.068;2023-03-01T02:22:47;4.90;69.30
53645;DHT22;39547;45.554;12.068;2023-03-01T02:28:50;4.90;68.00
53645;DHT22;39547;45.554;12.068;2023-03-01T02:34:56;5.00;68.50
53645;DHT22;39547;45.554;12.068;2023-03-01T02:40:58;5.00;69.20
53645;DHT22;39547;45.554;12.068;2023-03-01T02:47:02;5.10;68.70
53645;DHT22;39547;45.554;12.068;2023-03-01T02:59:32;5.10;68.40
53645;DHT22;39547;45.554;12.068;2023-03-01T03:05:41;5.10;68.50
53645;DHT22;39547;45.554;12.068;2023-03-01T03:11:43;5.20;68.00
53645;DHT22;39547;45.554;12.068;2023-03-01T03:17:45;5.10;68.50
53645;DHT22;39547;45.554;12.068;2023-03-01T03:23:47;5.00;68.50
53645;DHT22;39547;45.554;12.068;2023-03-01T03:29:48;5.00;69.00
53645;DHT22;39547;45.554;12.068;2023-03-01T03:35:50;4.80;69.20
53645;DHT22;39547;45.554;12.068;2023-03-01T03:41:52;4.70;69.70
53645;DHT22;39547;45.554;12.068;2023-03-01T03:47:54;4.70;70.50
53645;DHT22;39547;45.554;12.068;2023-03-01T03:53:55;4.70;70.30
53645;DHT22;39547;45.554;12.068;2023-03-01T03:59:56;4.80;69.90
53645;DHT22;39547;45.554;12.068;2023-03-01T04:05:59;4.80;70.20
53645;DHT22;39547;45.554;12.068;2023-03-01T04:12:01;4.80;70.30
53645;DHT22;39547;45.554;12.068;2023-03-01T04:18:02;4.80;70.40
53645;DHT22;39547;45.554;12.068;2023-03-01T04:24:04;4.80;70.90
53645;DHT22;39547;45.554;12.068;2023-03-01T04:30:07;4.90;70.80
53645;DHT22;39547;45.554;12.068;2023-03-01T04:36:11;4.90;70.40
53645;DHT22;39547;45.554;12.068;2023-03-01T04:42:13;5.00;71.10
53645;DHT22;39547;45.554;12.068;2023-03-01T04:48:15;5.00;70.60
53645;DHT22;39547;45.554;12.068;2023-03-01T04:54:16;5.10;70.80
53645;DHT22;39547;45.554;12.068;2023-03-01T05:00:18;5.10;71.50
53645;DHT22;39547;45.554;12.068;2023-03-01T05:06:22;5.20;70.90
53645;DHT22;39547;45.554;12.068;2023-03-01T05:12:23;5.30;71.30
53645;DHT22;39547;45.554;12.068;2023-03-01T05:18:26;5.40;71.70
53645;DHT22;39547;45.554;12.068;2023-03-01T05:24:30;5.50;71.30
53645;DHT22;39547;45.554;12.068;2023-03-01T05:30:33;5.50;70.30
53645;DHT22;39547;45.554;12.068;2023-03-01T05:36:35;5.60;71.80
53645;DHT22;39547;45.554;12.068;2023-03-01T05:42:36;5.60;71.00
53645;DHT22;39547;45.554;12.068;2023-03-01T05:48:37;5.60;70.40
53645;DHT22;39547;45.554;12.068;2023-03-01T05:54:39;5.60;70.50
53645;DHT22;39547;45.554;12.068;2023-03-01T06:00:42;5.50;70.40
53645;DHT22;39547;45.554;12.068;2023-03-01T06:06:44;5.50;69.50
53645;DHT22;39547;45.554;12.068;2023-03-01T06:12:45;5.60;69.90
53645;DHT22;39547;45.554;12.068;2023-03-01T06:18:47;5.60;70.70
53645;DHT22;39547;45.554;12.068;2023-03-01T06:24:48;5.60;69.80
53645;DHT22;39547;45.554;12.068;2023-03-01T06:30:51;5.60;70.80
53645;DHT22;39547;45.554;12.068;2023-03-01T06:36:52;5.60;71.00
53645;DHT22;39547;45.554;12.068;2023-03-01T06:42:54;5.70;70.90
53645;DHT22;39547;45.554;12.068;2023-03-01T06:48:56;5.80;71.20
53645;DHT22;39547;45.554;12.068;2023-03-01T06:54:57;5.90;70.70
53645;DHT22;39547;45.554;12.068;2023-03-01T07:00:59;5.90;70.00
53645;DHT22;39547;45.554;12.068;2023-03-01T07:07:01;6.00;70.30
53645;DHT22;39547;45.554;12.068;2023-03-01T07:13:02;6.10;69.90
53645;DHT22;39547;45.554;12.068;2023-03-01T07:19:04;6.20;70.60
53645;DHT22;39547;45.554;12.068;2023-03-01T07:25:06;6.30;70.20
53645;DHT22;39547;45.554;12.068;2023-03-01T07:31:08;6.50;70.50
53645;DHT22;39547;45.554;12.068;2023-03-01T07:37:09;6.70;68.10
53645;DHT22;39547;45.554;12.068;2023-03-01T07:43:11;6.90;68.70
53645;DHT22;39547;45.554;12.068;2023-03-01T07:49:12;7.00;68.00
53645;DHT22;39547;45.554;12.068;2023-03-01T07:55:15;7.20;67.50
53645;DHT22;39547;45.554;12.068;2023-03-01T08:01:19;7.40;67.70
53645;DHT22;39547;45.554;12.068;2023-03-01T08:07:20;7.60;68.40
53645;DHT22;39547;45.554;12.068;2023-03-01T08:13:22;7.60;67.80
53645;DHT22;39547;45.554;12.068;2023-03-01T08:19:23;7.80;67.60
53645;DHT22;39547;45.554;12.068;2023-03-01T08:25:25;8.00;67.80
53645;DHT22;39547;45.554;12.068;2023-03-01T08:31:36;8.20;66.20
53645;DHT22;39547;45.554;12.068;2023-03-01T08:37:37;8.50;66.70
53645;DHT22;39547;45.554;12.068;2023-03-01T08:43:39;8.70;65.10
53645;DHT22;39547;45.554;12.068;2023-03-01T08:49:40;8.70;64.90
53645;DHT22;39547;45.554;12.068;2023-03-01T08:55:42;8.90;63.90
53645;DHT22;39547;45.554;12.068;2023-03-01T09:01:44;9.10;65.40
53645;DHT22;39547;45.554;12.068;2023-03-01T09:07:46;9.60;64.50
53645;DHT22;39547;45.554;12.068;2023-03-01T09:13:48;10.20;60.20
53645;DHT22;39547;45.554;12.068;2023-03-01T09:19:50;10.60;58.90
53645;DHT22;39547;45.554;12.068;2023-03-01T09:25:52;10.50;58.30
53645;DHT22;39547;45.554;12.068;2023-03-01T09:31:53;10.30;58.30
53645;DHT22;39547;45.554;12.068;2023-03-01T09:37:58;10.30;58.90
53645;DHT22;39547;45.554;12.068;2023-03-01T09:50:16;10.70;56.70
53645;DHT22;39547;45.554;12.068;2023-03-01T09:56:22;11.00;54.80
53645;DHT22;39547;45.554;12.068;2023-03-01T10:02:39;11.10;54.30
53645;DHT22;39547;45.554;12.068;2023-03-01T10:08:55;11.20;52.90
53645;DHT22;39547;45.554;12.068;2023-03-01T10:15:06;11.40;52.40
53645;DHT22;39547;45.554;12.068;2023-03-01T10:21:17;11.50;52.30
53645;DHT22;39547;45.554;12.068;2023-03-01T10:27:45;11.30;51.50
53645;DHT22;39547;45.554;12.068;2023-03-01T10:33:49;11.20;52.30
53645;DHT22;39547;45.554;12.068;2023-03-01T10:40:07;11.20;52.90
53645;DHT22;39547;45.554;12.068;2023-03-01T10:46:30;11.10;52.60
53645;DHT22;39547;45.554;12.068;2023-03-01T10:52:37;10.90;52.90
53645;DHT22;39547;45.554;12.068;2023-03-01T10:58:41;10.80;52.20
53645;DHT22;39547;45.554;12.068;2023-03-01T11:05:22;10.70;52.40
53645;DHT22;39547;45.554;12.068;2023-03-01T11:11:34;10.70;52.70
53645;DHT22;39547;45.554;12.068;2023-03-01T11:17:36;10.60;54.40
53645;DHT22;39547;45.554;12.068;2023-03-01T11:23:41;10.40;57.00
53645;DHT22;39547;45.554;12.068;2023-03-01T11:29:54;10.30;55.10
53645;DHT22;39547;45.554;12.068;2023-03-01T11:36:11;10.40;54.70
53645;DHT22;39547;45.554;12.068;2023-03-01T11:55:41;10.60;53.20
53645;DHT22;39547;45.554;12.068;2023-03-01T12:21:29;10.70;54.10
53645;DHT22;39547;45.554;12.068;2023-03-01T12:27:50;10.70;54.50
53645;DHT22;39547;45.554;12.068;2023-03-01T12:53:02;10.50;55.40
53645;DHT22;39547;45.554;12.068;2023-03-01T12:59:17;10.30;55.70
53645;DHT22;39547;45.554;12.068;2023-03-01T13:05:47;10.40;56.40
53645;DHT22;39547;45.554;12.068;2023-03-01T13:11:53;10.40;55.90
53645;DHT22;39547;45.554;12.068;2023-03-01T13:17:58;10.50;55.60
53645;DHT22;39547;45.554;12.068;2023-03-01T13:24:00;10.50;55.20
53645;DHT22;39547;45.554;12.068;2023-03-01T13:30:01;10.40;56.10
53645;DHT22;39547;45.554;12.068;2023-03-01T13:36:08;10.40;56.60
53645;DHT22;39547;45.554;12.068;2023-03-01T13:48:30;10.20;56.70
53645;DHT22;39547;45.554;12.068;2023-03-01T13:54:33;10.20;55.80
53645;DHT22;39547;45.554;12.068;2023-03-01T14:00:37;10.30;56.50
53645;DHT22;39547;45.554;12.068;2023-03-01T14:06:39;10.20;56.70
53645;DHT22;39547;45.554;12.068;2023-03-01T14:13:17;10.20;57.70
53645;DHT22;39547;45.554;12.068;2023-03-01T14:19:27;10.20;58.80
53645;DHT22;39547;45.554;12.068;2023-03-01T14:25:31;10.20;58.90
53645;DHT22;39547;45.554;12.068;2023-03-01T14:31:38;10.20;59.10
53645;DHT22;39547;45.554;12.068;2023-03-01T14:37:40;10.10;59.40
53645;DHT22;39547;45.554;12.068;2023-03-01T14:43:44;10.10;58.80
53645;DHT22;39547;45.554;12.068;2023-03-01T14:49:49;10.20;59.80
53645;DHT22;39547;45.554;12.068;2023-03-01T14:55:59;10.20;59.60
53645;DHT22;39547;45.554;12.068;2023-03-01T15:02:03;10.20;59.50
53645;DHT22;39547;45.554;12.068;2023-03-01T15:08:05;10.30;58.40
53645;DHT22;39547;45.554;12.068;2023-03-01T15:14:40;10.30;60.00
53645;DHT22;39547;45.554;12.068;2023-03-01T15:20:44;10.30;60.40
53645;DHT22;39547;45.554;12.068;2023-03-01T15:45:33;10.00;62.00
53645;DHT22;39547;45.554;12.068;2023-03-01T15:51:41;9.90;62.70
53645;DHT22;39547;45.554;12.068;2023-03-01T15:57:42;9.70;63.50
53645;DHT22;39547;45.554;12.068;2023-03-01T16:03:44;9.70;65.00
53645;DHT22;39547;45.554;12.068;2023-03-01T16:09:46;9.50;67.50
53645;DHT22;39547;45.554;12.068;2023-03-01T16:15:47;9.20;70.20
53645;DHT22;39547;45.554;12.068;2023-03-01T16:21:49;8.90;71.20
53645;DHT22;39547;45.554;12.068;2023-03-01T16:27:51;8.70;72.80
53645;DHT22;39547;45.554;12.068;2023-03-01T16:33:57;8.50;74.30
53645;DHT22;39547;45.554;12.068;2023-03-01T16:39:59;8.40;73.50
53645;DHT22;39547;45.554;12.068;2023-03-01T16:46:00;8.30;73.40
53645;DHT22;39547;45.554;12.068;2023-03-01T16:52:02;8.30;73.80
53645;DHT22;39547;45.554;12.068;2023-03-01T16:58:03;8.20;74.10
53645;DHT22;39547;45.554;12.068;2023-03-01T17:04:05;8.20;74.50
53645;DHT22;39547;45.554;12.068;2023-03-01T17:10:08;8.10;74.70
53645;DHT22;39547;45.554;12.068;2023-03-01T17:16:14;8.10;75.50
53645;DHT22;39547;45.554;12.068;2023-03-01T17:22:17;8.10;75.70
53645;DHT22;39547;45.554;12.068;2023-03-01T17:28:18;8.00;75.90
53645;DHT22;39547;45.554;12.068;2023-03-01T17:34:20;8.00;76.40
53645;DHT22;39547;45.554;12.068;2023-03-01T17:40:21;8.00;77.20
53645;DHT22;39547;45.554;12.068;2023-03-01T17:46:22;7.90;77.70
53645;DHT22;39547;45.554;12.068;2023-03-01T17:52:24;7.80;78.70
53645;DHT22;39547;45.554;12.068;2023-03-01T17:58:26;7.80;79.30
53645;DHT22;39547;45.554;12.068;2023-03-01T18:04:28;7.70;79.40
53645;DHT22;39547;45.554;12.068;2023-03-01T18:10:31;7.70;80.10
53645;DHT22;39547;45.554;12.068;2023-03-01T18:16:33;7.70;80.20
53645;DHT22;39547;45.554;12.068;2023-03-01T18:22:34;7.70;80.60
53645;DHT22;39547;45.554;12.068;2023-03-01T18:28:36;7.70;80.50
53645;DHT22;39547;45.554;12.068;2023-03-01T18:34:38;7.70;80.90
53645;DHT22;39547;45.554;12.068;2023-03-01T18:40:41;7.70;81.00
53645;DHT22;39547;45.554;12.068;2023-03-01T18:46:43;7.70;80.80
53645;DHT22;39547;45.554;12.068;2023-03-01T18:52:46;7.70;80.90
53645;DHT22;39547;45.554;12.068;2023-03-01T18:58:47;7.70;81.20
53645;DHT22;39547;45.554;12.068;2023-03-01T19:04:49;7.70;81.00
53645;DHT22;39547;45.554;12.068;2023-03-01T19:10:57;7.80;81.10
53645;DHT22;39547;45.554;12.068;2023-03-01T19:16:58;7.80;81.00
53645;DHT22;39547;45.554;12.068;2023-03-01T19:23:00;7.90;81.40
53645;DHT22;39547;45.554;12.068;2023-03-01T19:29:01;7.90;81.20
53645;DHT22;39547;45.554;12.068;2023-03-01T19:35:04;7.90;81.00
53645;DHT22;39547;45.554;12.068;2023-03-01T19:41:10;7.90;80.60
53645;DHT22;39547;45.554;12.068;2023-03-01T19:47:12;7.90;80.70
53645;DHT22;39547;45.554;12.068;2023-03-01T19:53:14;7.90;80.50
53645;DHT22;39547;45.554;12.068;2023-03-01T19:59:16;7.90;80.50
53645;DHT22;39547;45.554;12.068;2023-03-01T20:05:19;7.90;79.60
53645;DHT22;39547;45.554;12.068;2023-03-01T20:11:21;8.00;79.30
53645;DHT22;39547;45.554;12.068;2023-03-01T20:17:22;7.90;79.40
53645;DHT22;39547;45.554;12.068;2023-03-01T20:23:24;7.90;79.60
53645;DHT22;39547;45.554;12.068;2023-03-01T20:29:26;7.90;79.80
53645;DHT22;39547;45.554;12.068;2023-03-01T20:35:27;7.90;79.90
53645;DHT22;39547;45.554;12.068;2023-03-01T20:41:32;8.00;80.20
53645;DHT22;39547;45.554;12.068;2023-03-01T20:47:34;8.00;80.20
53645;DHT22;39547;45.554;12.068;2023-03-01T20:53:35;8.00;80.40
53645;DHT22;39547;45.554;12.068;2023-03-01T20:59:37;8.00;80.50
53645;DHT22;39547;45.554;12.068;2023-03-01T21:05:38;8.00;80.20
53645;DHT22;39547;45.554;12.068;2023-03-01T21:11:39;8.10;80.20
53645;DHT22;39547;45.554;12.068;2023-03-01T21:17:41;8.00;80.20
53645;DHT22;39547;45.554;12.068;2023-03-01T21:23:43;8.10;80.20
53645;DHT22;39547;45.554;12.068;2023-03-01T21:29:45;8.10;80.00
53645;DHT22;39547;45.554;12.068;2023-03-01T21:35:47;8.20;80.00
53645;DHT22;39547;45.554;12.068;2023-03-01T21:41:49;8.20;80.00
53645;DHT22;39547;45.554;12.068;2023-03-01T21:47:50;8.20;79.80
53645;DHT22;39547;45.554;12.068;2023-03-01T21:53:54;8.20;79.80
53645;DHT22;39547;45.554;12.068;2023-03-01T21:59:55;8.20;79.50
53645;DHT22;39547;45.554;12.068;2023-03-01T22:05:59;8.30;79.40
53645;DHT22;39547;45.554;12.068;2023-03-01T22:12:01;8.30;79.20
53645;DHT22;39547;45.554;12.068;2023-03-01T22:18:02;8.30;79.10
53645;DHT22;39547;45.554;12.068;2023-03-01T22:24:05;8.30;79.20
53645;DHT22;39547;45.554;12.068;2023-03-01T22:30:09;8.30;79.10
53645;DHT22;39547;45.554;12.068;2023-03-01T22:36:11;8.30;79.20
53645;DHT22;39547;45.554;12.068;2023-03-01T22:42:13;8.30;79.10
53645;DHT22;39547;45.554;12.068;2023-03-01T22:48:14;8.20;79.10
53645;DHT22;39547;45.554;12.068;2023-03-01T22:54:16;8.20;79.30
53645;DHT22;39547;45.554;12.068;2023-03-01T23:00:19;8.20;79.30
53645;DHT22;39547;45.554;12.068;2023-03-01T23:06:21;8.20;79.20
53645;DHT22;39547;45.554;12.068;2023-03-01T23:12:22;8.30;79.00
53645;DHT22;39547;45.554;12.068;2023-03-01T23:18:24;8.30;78.90
53645;DHT22;39547;45.554;12.068;2023-03-01T23:24:25;8.40;78.80
53645;DHT22;39547;45.554;12.068;2023-03-01T23:30:31;8.40;78.60
53645;DHT22;39547;45.554;12.068;2023-03-01T23:36:33;8.40;78.50
53645;DHT22;39547;45.554;12.068;2023-03-01T23:42:34;8.40;78.40
53645;DHT22;39547;45.554;12.068;2023-03-01T23:48:36;8.40;78.40
53645;DHT22;39547;45.554;12.068;2023-03-01T23:54:37;8.40;78.30
